sensor_id;sensor_type;location;lat;lon;timestamp;P1;durP1;ratioP1;P2;durP2;ratioP2
59756;SDS011;45631;51.962;5.974;2023-04-15T00:01:56;11.77;;;5.55;;
59756;SDS011;45631;51.962;5.974;2023-04-15T00:04:26;13.30;;;5.60;;
59756;SDS011;45631;51.962;5.974;2023-04-15T00:06:54;13.00;;;5.88;;
59756;SDS011;45631;51.962;5.974;2023-04-15T00:09:22;12.20;;;6.10;;
59756;SDS011;45631;51.962;5.974;2023-04-15T00:11:52;10.25;;;5.68;;
59756;SDS011;45631;51.962;5.974;2023-04-15T00:14:20;9.60;;;5.47;;
59756;SDS011;45631;51.962;5.974;2023-04-15T00:16:48;9.80;;;5.93;;
59756;SDS011;45631;51.962;5.974;2023-04-15T00:19:21;10.00;;;5.50;;
59756;SDS011;45631;51.962;5.974;2023-04-15T00:21:50;11.43;;;5.93;;
59756;SDS011;45631;51.962;5.974;2023-04-15T00:24:18;14.15;;;6.47;;
59756;SDS011;45631;51.962;5.974;2023-04-15T00:26:47;11.93;;;6.13;;
59756;SDS011;45631;51.962;5.974;2023-04-15T00:29:16;11.20;;;5.88;;
59756;SDS011;45631;51.962;5.974;2023-04-15T00:31:45;12.13;;;5.90;;
59756;SDS011;45631;51.962;5.974;2023-04-15T00:34:13;10.93;;;6.13;;
59756;SDS011;45631;51.962;5.974;2023-04-15T00:36:42;11.98;;;6.00;;
59756;SDS011;45631;51.962;5.974;2023-04-15T00:39:10;8.63;;;5.43;;
59756;SDS011;45631;51.962;5.974;2023-04-15T00:41:38;11.40;;;5.85;;
59756;SDS011;45631;51.962;5.974;2023-04-15T00:44:06;11.00;;;5.78;;
59756;SDS011;45631;51.962;5.974;2023-04-15T00:46:36;10.35;;;5.82;;
59756;SDS011;45631;51.962;5.974;2023-04-15T00:49:05;11.05;;;6.00;;
59756;SDS011;45631;51.962;5.974;2023-04-15T00:51:34;12.82;;;6.00;;
59756;SDS011;45631;51.962;5.974;2023-04-15T00:54:02;10.75;;;6.20;;
59756;SDS011;45631;51.962;5.974;2023-04-15T00:56:32;10.13;;;5.85;;
59756;SDS011;45631;51.962;5.974;2023-04-15T00:59:03;11.43;;;6.15;;
59756;SDS011;45631;51.962;5.974;2023-04-15T01:01:33;11.38;;;6.10;;
59756;SDS011;45631;51.962;5.974;2023-04-15T01:04:04;13.27;;;6.38;;
59756;SDS011;45631;51.962;5.974;2023-04-15T01:06:32;11.00;;;6.45;;
59756;SDS011;45631;51.962;5.974;2023-04-15T01:09:00;11.82;;;6.05;;
59756;SDS011;45631;51.962;5.974;2023-04-15T01:11:29;10.55;;;6.53;;
59756;SDS011;45631;51.962;5.974;2023-04-15T01:13:59;13.20;;;6.60;;
59756;SDS011;45631;51.962;5.974;2023-04-15T01:16:28;12.13;;;6.47;;
59756;SDS011;45631;51.962;5.974;2023-04-15T01:18:56;10.30;;;6.05;;
59756;SDS011;45631;51.962;5.974;2023-04-15T01:21:26;13.20;;;6.45;;
59756;SDS011;45631;51.962;5.974;2023-04-15T01:23:55;10.05;;;6.10;;
59756;SDS011;45631;51.962;5.974;2023-04-15T01:26:25;12.73;;;6.72;;
59756;SDS011;45631;51.962;5.974;2023-04-15T01:28:53;12.50;;;6.50;;
59756;SDS011;45631;51.962;5.974;2023-04-15T01:31:22;10.98;;;6.18;;
59756;SDS011;45631;51.962;5.974;2023-04-15T01:33:50;10.75;;;6.20;;
59756;SDS011;45631;51.962;5.974;2023-04-15T01:36:18;12.30;;;6.35;;
59756;SDS011;45631;51.962;5.974;2023-04-15T01:38:46;11.25;;;6.07;;
59756;SDS011;45631;51.962;5.974;2023-04-15T01:41:15;13.32;;;6.22;;
59756;SDS011;45631;51.962;5.974;2023-04-15T01:43:46;11.25;;;6.43;;
59756;SDS011;45631;51.962;5.974;2023-04-15T01:46:14;13.48;;;5.97;;
59756;SDS011;45631;51.962;5.974;2023-04-15T01:48:45;10.50;;;5.70;;
59756;SDS011;45631;51.962;5.974;2023-04-15T01:51:13;11.88;;;6.13;;
59756;SDS011;45631;51.962;5.974;2023-04-15T01:53:42;10.77;;;5.88;;
59756;SDS011;45631;51.962;5.974;2023-04-15T01:56:10;10.85;;;6.25;;
59756;SDS011;45631;51.962;5.974;2023-04-15T01:58:38;10.07;;;5.82;;
59756;SDS011;45631;51.962;5.974;2023-04-15T02:01:08;9.90;;;5.63;;
59756;SDS011;45631;51.962;5.974;2023-04-15T02:03:37;10.63;;;5.80;;
59756;SDS011;45631;51.962;5.974;2023-04-15T02:06:05;12.02;;;6.68;;
59756;SDS011;45631;51.962;5.974;2023-04-15T02:08:33;11.18;;;5.90;;
59756;SDS011;45631;51.962;5.974;2023-04-15T02:11:01;11.77;;;6.72;;
59756;SDS011;45631;51.962;5.974;2023-04-15T02:13:29;10.63;;;5.72;;
59756;SDS011;45631;51.962;5.974;2023-04-15T02:15:57;10.10;;;5.70;;
59756;SDS011;45631;51.962;5.974;2023-04-15T02:18:27;12.45;;;6.03;;
59756;SDS011;45631;51.962;5.974;2023-04-15T02:20:55;9.57;;;5.50;;
59756;SDS011;45631;51.962;5.974;2023-04-15T02:23:24;9.65;;;5.63;;
59756;SDS011;45631;51.962;5.974;2023-04-15T02:25:52;14.20;;;5.97;;
59756;SDS011;45631;51.962;5.974;2023-04-15T02:28:20;12.23;;;6.07;;
59756;SDS011;45631;51.962;5.974;2023-04-15T02:30:48;11.60;;;6.07;;
59756;SDS011;45631;51.962;5.974;2023-04-15T02:33:20;11.57;;;5.85;;
59756;SDS011;45631;51.962;5.974;2023-04-15T02:35:50;10.63;;;6.05;;
59756;SDS011;45631;51.962;5.974;2023-04-15T02:38:19;11.77;;;6.00;;
59756;SDS011;45631;51.962;5.974;2023-04-15T02:40:47;8.93;;;5.82;;
59756;SDS011;45631;51.962;5.974;2023-04-15T02:43:16;10.82;;;5.97;;
59756;SDS011;45631;51.962;5.974;2023-04-15T02:45:44;9.82;;;5.88;;
59756;SDS011;45631;51.962;5.974;2023-04-15T02:48:14;11.05;;;6.63;;
59756;SDS011;45631;51.962;5.974;2023-04-15T02:50:44;10.35;;;6.07;;
59756;SDS011;45631;51.962;5.974;2023-04-15T02:53:17;12.02;;;6.63;;
59756;SDS011;45631;51.962;5.974;2023-04-15T02:55:46;12.02;;;6.53;;
59756;SDS011;45631;51.962;5.974;2023-04-15T02:58:14;10.95;;;6.50;;
59756;SDS011;45631;51.962;5.974;2023-04-15T03:00:45;10.18;;;6.00;;
59756;SDS011;45631;51.962;5.974;2023-04-15T03:03:13;10.55;;;6.25;;
59756;SDS011;45631;51.962;5.974;2023-04-15T03:05:43;11.10;;;6.22;;
59756;SDS011;45631;51.962;5.974;2023-04-15T03:08:11;10.70;;;6.57;;
59756;SDS011;45631;51.962;5.974;2023-04-15T03:10:41;10.90;;;6.28;;
59756;SDS011;45631;51.962;5.974;2023-04-15T03:13:10;12.38;;;6.53;;
59756;SDS011;45631;51.962;5.974;2023-04-15T03:15:38;10.82;;;6.35;;
59756;SDS011;45631;51.962;5.974;2023-04-15T03:18:06;11.13;;;6.50;;
59756;SDS011;45631;51.962;5.974;2023-04-15T03:20:34;9.80;;;6.18;;
59756;SDS011;45631;51.962;5.974;2023-04-15T03:23:02;10.77;;;6.93;;
59756;SDS011;45631;51.962;5.974;2023-04-15T03:25:31;11.93;;;7.03;;
59756;SDS011;45631;51.962;5.974;2023-04-15T03:28:00;12.32;;;7.25;;
59756;SDS011;45631;51.962;5.974;2023-04-15T03:30:28;12.23;;;6.95;;
59756;SDS011;45631;51.962;5.974;2023-04-15T03:32:56;13.55;;;7.30;;
59756;SDS011;45631;51.962;5.974;2023-04-15T03:35:24;12.02;;;7.05;;
59756;SDS011;45631;51.962;5.974;2023-04-15T03:37:52;13.00;;;7.20;;
59756;SDS011;45631;51.962;5.974;2023-04-15T03:40:21;11.45;;;6.82;;
59756;SDS011;45631;51.962;5.974;2023-04-15T03:42:49;10.07;;;6.70;;
59756;SDS011;45631;51.962;5.974;2023-04-15T03:45:20;11.27;;;6.65;;
59756;SDS011;45631;51.962;5.974;2023-04-15T03:47:48;14.15;;;7.75;;
59756;SDS011;45631;51.962;5.974;2023-04-15T03:50:19;12.45;;;7.50;;
59756;SDS011;45631;51.962;5.974;2023-04-15T03:52:47;13.00;;;7.30;;
59756;SDS011;45631;51.962;5.974;2023-04-15T03:55:16;12.98;;;7.43;;
59756;SDS011;45631;51.962;5.974;2023-04-15T03:57:45;13.40;;;7.38;;
59756;SDS011;45631;51.962;5.974;2023-04-15T04:00:13;13.55;;;7.57;;
59756;SDS011;45631;51.962;5.974;2023-04-15T04:02:43;12.68;;;7.20;;
59756;SDS011;45631;51.962;5.974;2023-04-15T04:05:11;14.52;;;7.70;;
59756;SDS011;45631;51.962;5.974;2023-04-15T04:07:39;12.70;;;7.05;;
59756;SDS011;45631;51.962;5.974;2023-04-15T04:10:08;12.52;;;8.00;;
59756;SDS011;45631;51.962;5.974;2023-04-15T04:12:39;14.07;;;8.50;;
59756;SDS011;45631;51.962;5.974;2023-04-15T04:15:10;11.50;;;7.63;;
59756;SDS011;45631;51.962;5.974;2023-04-15T04:17:38;15.20;;;8.00;;
59756;SDS011;45631;51.962;5.974;2023-04-15T04:20:08;13.45;;;8.13;;
59756;SDS011;45631;51.962;5.974;2023-04-15T04:22:39;14.57;;;8.23;;
59756;SDS011;45631;51.962;5.974;2023-04-15T04:25:07;14.90;;;8.38;;
59756;SDS011;45631;51.962;5.974;2023-04-15T04:27:36;15.05;;;7.50;;
59756;SDS011;45631;51.962;5.974;2023-04-15T04:30:05;13.75;;;7.70;;
59756;SDS011;45631;51.962;5.974;2023-04-15T04:32:34;12.38;;;7.65;;
59756;SDS011;45631;51.962;5.974;2023-04-15T04:35:02;13.65;;;7.95;;
59756;SDS011;45631;51.962;5.974;2023-04-15T04:37:32;13.75;;;8.55;;
59756;SDS011;45631;51.962;5.974;2023-04-15T04:40:00;12.85;;;7.85;;
59756;SDS011;45631;51.962;5.974;2023-04-15T04:42:29;15.43;;;8.38;;
59756;SDS011;45631;51.962;5.974;2023-04-15T04:44:57;14.15;;;8.85;;
59756;SDS011;45631;51.962;5.974;2023-04-15T04:47:25;15.10;;;8.80;;
59756;SDS011;45631;51.962;5.974;2023-04-15T04:49:53;14.02;;;8.20;;
59756;SDS011;45631;51.962;5.974;2023-04-15T04:52:21;13.75;;;8.68;;
59756;SDS011;45631;51.962;5.974;2023-04-15T04:54:51;12.52;;;7.93;;
59756;SDS011;45631;51.962;5.974;2023-04-15T04:57:19;14.65;;;8.50;;
59756;SDS011;45631;51.962;5.974;2023-04-15T04:59:47;16.60;;;8.70;;
59756;SDS011;45631;51.962;5.974;2023-04-15T05:02:17;14.93;;;8.65;;
59756;SDS011;45631;51.962;5.974;2023-04-15T05:04:46;14.23;;;9.38;;
59756;SDS011;45631;51.962;5.974;2023-04-15T05:07:15;16.17;;;8.93;;
59756;SDS011;45631;51.962;5.974;2023-04-15T05:09:43;14.95;;;8.65;;
59756;SDS011;45631;51.962;5.974;2023-04-15T05:12:13;16.60;;;8.75;;
59756;SDS011;45631;51.962;5.974;2023-04-15T05:14:41;17.35;;;9.20;;
59756;SDS011;45631;51.962;5.974;2023-04-15T05:17:09;14.38;;;9.13;;
59756;SDS011;45631;51.962;5.974;2023-04-15T05:19:38;14.73;;;8.63;;
59756;SDS011;45631;51.962;5.974;2023-04-15T05:22:06;14.32;;;9.02;;
59756;SDS011;45631;51.962;5.974;2023-04-15T05:24:34;16.10;;;9.13;;
59756;SDS011;45631;51.962;5.974;2023-04-15T05:27:02;13.27;;;8.38;;
59756;SDS011;45631;51.962;5.974;2023-04-15T05:29:32;15.93;;;9.30;;
59756;SDS011;45631;51.962;5.974;2023-04-15T05:32:00;15.52;;;9.63;;
59756;SDS011;45631;51.962;5.974;2023-04-15T05:34:28;15.25;;;9.63;;
59756;SDS011;45631;51.962;5.974;2023-04-15T05:36:56;15.38;;;9.13;;
59756;SDS011;45631;51.962;5.974;2023-04-15T05:39:24;17.20;;;9.68;;
59756;SDS011;45631;51.962;5.974;2023-04-15T05:41:53;15.05;;;9.50;;
59756;SDS011;45631;51.962;5.974;2023-04-15T05:44:21;14.57;;;9.00;;
59756;SDS011;45631;51.962;5.974;2023-04-15T05:46:50;16.70;;;10.00;;
59756;SDS011;45631;51.962;5.974;2023-04-15T05:49:18;14.90;;;9.15;;
59756;SDS011;45631;51.962;5.974;2023-04-15T05:51:47;15.20;;;9.98;;
59756;SDS011;45631;51.962;5.974;2023-04-15T05:54:15;17.23;;;9.85;;
59756;SDS011;45631;51.962;5.974;2023-04-15T05:56:45;15.65;;;9.93;;
59756;SDS011;45631;51.962;5.974;2023-04-15T05:59:13;16.77;;;9.65;;
59756;SDS011;45631;51.962;5.974;2023-04-15T06:01:42;18.85;;;10.18;;
59756;SDS011;45631;51.962;5.974;2023-04-15T06:04:12;17.83;;;10.88;;
59756;SDS011;45631;51.962;5.974;2023-04-15T06:06:40;17.67;;;10.02;;
59756;SDS011;45631;51.962;5.974;2023-04-15T06:09:09;17.40;;;10.52;;
59756;SDS011;45631;51.962;5.974;2023-04-15T06:11:37;15.25;;;9.90;;
59756;SDS011;45631;51.962;5.974;2023-04-15T06:14:06;16.13;;;10.02;;
59756;SDS011;45631;51.962;5.974;2023-04-15T06:16:34;14.88;;;9.95;;
59756;SDS011;45631;51.962;5.974;2023-04-15T06:19:03;18.15;;;10.07;;
59756;SDS011;45631;51.962;5.974;2023-04-15T06:21:33;15.63;;;9.73;;
59756;SDS011;45631;51.962;5.974;2023-04-15T06:24:01;16.08;;;10.50;;
59756;SDS011;45631;51.962;5.974;2023-04-15T06:26:29;15.10;;;9.82;;
59756;SDS011;45631;51.962;5.974;2023-04-15T06:28:57;13.63;;;9.20;;
59756;SDS011;45631;51.962;5.974;2023-04-15T06:31:26;15.23;;;10.23;;
59756;SDS011;45631;51.962;5.974;2023-04-15T06:33:54;17.80;;;10.90;;
59756;SDS011;45631;51.962;5.974;2023-04-15T06:36:22;16.02;;;9.25;;
59756;SDS011;45631;51.962;5.974;2023-04-15T06:38:52;14.65;;;9.00;;
59756;SDS011;45631;51.962;5.974;2023-04-15T06:41:20;15.07;;;9.07;;
59756;SDS011;45631;51.962;5.974;2023-04-15T06:43:48;13.18;;;8.10;;
59756;SDS011;45631;51.962;5.974;2023-04-15T06:46:16;14.90;;;8.98;;
59756;SDS011;45631;51.962;5.974;2023-04-15T06:48:45;13.05;;;8.25;;
59756;SDS011;45631;51.962;5.974;2023-04-15T06:51:13;11.88;;;7.60;;
59756;SDS011;45631;51.962;5.974;2023-04-15T06:53:41;14.35;;;8.68;;
59756;SDS011;45631;51.962;5.974;2023-04-15T06:56:11;14.73;;;9.27;;
59756;SDS011;45631;51.962;5.974;2023-04-15T06:58:39;14.98;;;8.75;;
59756;SDS011;45631;51.962;5.974;2023-04-15T07:01:07;14.02;;;8.85;;
59756;SDS011;45631;51.962;5.974;2023-04-15T07:03:35;16.50;;;10.00;;
59756;SDS011;45631;51.962;5.974;2023-04-15T07:06:03;16.05;;;9.52;;
59756;SDS011;45631;51.962;5.974;2023-04-15T07:08:32;17.67;;;10.20;;
59756;SDS011;45631;51.962;5.974;2023-04-15T07:11:00;17.08;;;9.65;;
59756;SDS011;45631;51.962;5.974;2023-04-15T07:13:30;15.02;;;9.18;;
59756;SDS011;45631;51.962;5.974;2023-04-15T07:15:59;15.63;;;9.15;;
59756;SDS011;45631;51.962;5.974;2023-04-15T07:18:27;14.00;;;8.75;;
59756;SDS011;45631;51.962;5.974;2023-04-15T07:20:55;12.85;;;8.43;;
59756;SDS011;45631;51.962;5.974;2023-04-15T07:23:23;15.23;;;8.63;;
59756;SDS011;45631;51.962;5.974;2023-04-15T07:25:52;14.75;;;8.77;;
59756;SDS011;45631;51.962;5.974;2023-04-15T07:28:20;13.10;;;7.32;;
59756;SDS011;45631;51.962;5.974;2023-04-15T07:30:52;16.42;;;7.70;;
59756;SDS011;45631;51.962;5.974;2023-04-15T07:33:22;12.43;;;7.32;;
59756;SDS011;45631;51.962;5.974;2023-04-15T07:35:50;12.32;;;7.22;;
59756;SDS011;45631;51.962;5.974;2023-04-15T07:38:19;13.32;;;7.63;;
59756;SDS011;45631;51.962;5.974;2023-04-15T07:40:47;15.98;;;7.45;;
59756;SDS011;45631;51.962;5.974;2023-04-15T07:43:15;11.23;;;7.03;;
59756;SDS011;45631;51.962;5.974;2023-04-15T07:45:44;12.18;;;6.18;;
59756;SDS011;45631;51.962;5.974;2023-04-15T07:48:13;10.63;;;6.63;;
59756;SDS011;45631;51.962;5.974;2023-04-15T07:50:45;11.95;;;6.70;;
59756;SDS011;45631;51.962;5.974;2023-04-15T07:53:13;11.45;;;6.68;;
59756;SDS011;45631;51.962;5.974;2023-04-15T07:55:41;10.52;;;6.43;;
59756;SDS011;45631;51.962;5.974;2023-04-15T07:58:09;12.02;;;6.70;;
59756;SDS011;45631;51.962;5.974;2023-04-15T08:00:37;12.02;;;6.95;;
59756;SDS011;45631;51.962;5.974;2023-04-15T08:03:06;10.52;;;7.15;;
59756;SDS011;45631;51.962;5.974;2023-04-15T08:05:36;10.63;;;5.57;;
59756;SDS011;45631;51.962;5.974;2023-04-15T08:08:04;10.25;;;6.05;;
59756;SDS011;45631;51.962;5.974;2023-04-15T08:10:32;12.07;;;5.53;;
59756;SDS011;45631;51.962;5.974;2023-04-15T08:13:00;9.32;;;5.60;;
59756;SDS011;45631;51.962;5.974;2023-04-15T08:15:28;7.95;;;5.28;;
59756;SDS011;45631;51.962;5.974;2023-04-15T08:17:58;9.23;;;5.13;;
59756;SDS011;45631;51.962;5.974;2023-04-15T08:20:26;10.25;;;5.32;;
59756;SDS011;45631;51.962;5.974;2023-04-15T08:22:56;10.27;;;5.35;;
59756;SDS011;45631;51.962;5.974;2023-04-15T08:25:24;8.05;;;4.65;;
59756;SDS011;45631;51.962;5.974;2023-04-15T08:27:54;9.25;;;4.28;;
59756;SDS011;45631;51.962;5.974;2023-04-15T08:30:22;6.85;;;4.00;;
59756;SDS011;45631;51.962;5.974;2023-04-15T08:32:50;6.90;;;3.78;;
59756;SDS011;45631;51.962;5.974;2023-04-15T08:35:18;7.43;;;3.90;;
59756;SDS011;45631;51.962;5.974;2023-04-15T08:37:46;7.07;;;3.85;;
59756;SDS011;45631;51.962;5.974;2023-04-15T08:40:17;7.20;;;3.58;;
59756;SDS011;45631;51.962;5.974;2023-04-15T08:42:48;8.50;;;3.90;;
59756;SDS011;45631;51.962;5.974;2023-04-15T08:45:19;7.25;;;3.50;;
59756;SDS011;45631;51.962;5.974;2023-04-15T08:47:48;7.30;;;3.70;;
59756;SDS011;45631;51.962;5.974;2023-04-15T08:50:23;7.65;;;3.80;;
59756;SDS011;45631;51.962;5.974;2023-04-15T08:52:53;6.82;;;3.63;;
59756;SDS011;45631;51.962;5.974;2023-04-15T08:55:23;6.45;;;3.53;;
59756;SDS011;45631;51.962;5.974;2023-04-15T08:57:53;8.30;;;3.97;;
59756;SDS011;45631;51.962;5.974;2023-04-15T09:00:21;8.52;;;3.75;;
59756;SDS011;45631;51.962;5.974;2023-04-15T09:02:50;6.97;;;3.75;;
59756;SDS011;45631;51.962;5.974;2023-04-15T09:05:19;7.85;;;3.88;;
59756;SDS011;45631;51.962;5.974;2023-04-15T09:07:51;7.25;;;3.30;;
59756;SDS011;45631;51.962;5.974;2023-04-15T09:10:19;6.65;;;3.67;;
59756;SDS011;45631;51.962;5.974;2023-04-15T09:12:49;6.82;;;3.47;;
59756;SDS011;45631;51.962;5.974;2023-04-15T09:15:17;8.05;;;3.88;;
59756;SDS011;45631;51.962;5.974;2023-04-15T09:17:45;6.97;;;3.15;;
59756;SDS011;45631;51.962;5.974;2023-04-15T09:20:14;7.22;;;3.50;;
59756;SDS011;45631;51.962;5.974;2023-04-15T09:22:45;7.20;;;3.70;;
59756;SDS011;45631;51.962;5.974;2023-04-15T09:25:24;8.02;;;4.10;;
59756;SDS011;45631;51.962;5.974;2023-04-15T09:27:55;7.00;;;3.72;;
59756;SDS011;45631;51.962;5.974;2023-04-15T09:30:24;7.70;;;4.18;;
59756;SDS011;45631;51.962;5.974;2023-04-15T09:32:55;8.77;;;4.60;;
59756;SDS011;45631;51.962;5.974;2023-04-15T09:35:24;8.20;;;4.57;;
59756;SDS011;45631;51.962;5.974;2023-04-15T09:38:00;7.90;;;4.47;;
59756;SDS011;45631;51.962;5.974;2023-04-15T09:40:33;9.82;;;4.65;;
59756;SDS011;45631;51.962;5.974;2023-04-15T09:43:04;7.80;;;3.85;;
59756;SDS011;45631;51.962;5.974;2023-04-15T09:45:33;7.03;;;3.67;;
59756;SDS011;45631;51.962;5.974;2023-04-15T09:48:15;9.53;;;4.83;;
59756;SDS011;45631;51.962;5.974;2023-04-15T09:50:44;11.65;;;4.70;;
59756;SDS011;45631;51.962;5.974;2023-04-15T09:53:15;7.13;;;4.05;;
59756;SDS011;45631;51.962;5.974;2023-04-15T09:55:45;10.02;;;4.80;;
59756;SDS011;45631;51.962;5.974;2023-04-15T09:58:18;7.65;;;4.38;;
59756;SDS011;45631;51.962;5.974;2023-04-15T10:00:47;7.45;;;3.85;;
59756;SDS011;45631;51.962;5.974;2023-04-15T10:03:17;8.25;;;4.20;;
59756;SDS011;45631;51.962;5.974;2023-04-15T10:05:48;7.78;;;3.80;;
59756;SDS011;45631;51.962;5.974;2023-04-15T10:08:20;7.43;;;3.83;;
59756;SDS011;45631;51.962;5.974;2023-04-15T10:10:49;6.65;;;3.80;;
59756;SDS011;45631;51.962;5.974;2023-04-15T10:13:20;7.47;;;4.18;;
59756;SDS011;45631;51.962;5.974;2023-04-15T10:15:50;7.38;;;4.13;;
59756;SDS011;45631;51.962;5.974;2023-04-15T10:18:26;7.35;;;3.70;;
59756;SDS011;45631;51.962;5.974;2023-04-15T10:20:55;8.18;;;4.20;;
59756;SDS011;45631;51.962;5.974;2023-04-15T10:23:23;7.38;;;3.78;;
59756;SDS011;45631;51.962;5.974;2023-04-15T10:25:53;6.90;;;3.58;;
59756;SDS011;45631;51.962;5.974;2023-04-15T10:28:23;8.13;;;3.70;;
59756;SDS011;45631;51.962;5.974;2023-04-15T10:30:52;7.45;;;3.03;;
59756;SDS011;45631;51.962;5.974;2023-04-15T10:33:20;7.75;;;3.50;;
59756;SDS011;45631;51.962;5.974;2023-04-15T10:35:50;5.93;;;3.10;;
59756;SDS011;45631;51.962;5.974;2023-04-15T10:38:30;6.95;;;3.50;;
59756;SDS011;45631;51.962;5.974;2023-04-15T10:41:11;5.75;;;3.15;;
59756;SDS011;45631;51.962;5.974;2023-04-15T10:43:46;7.03;;;3.33;;
59756;SDS011;45631;51.962;5.974;2023-04-15T10:46:17;6.45;;;3.20;;
59756;SDS011;45631;51.962;5.974;2023-04-15T10:48:47;6.25;;;3.00;;
59756;SDS011;45631;51.962;5.974;2023-04-15T10:51:25;6.88;;;3.22;;
59756;SDS011;45631;51.962;5.974;2023-04-15T10:53:57;6.10;;;2.95;;
59756;SDS011;45631;51.962;5.974;2023-04-15T10:56:27;7.47;;;3.55;;
59756;SDS011;45631;51.962;5.974;2023-04-15T10:58:59;6.30;;;3.05;;
59756;SDS011;45631;51.962;5.974;2023-04-15T11:07:36;5.68;;;2.78;;
59756;SDS011;45631;51.962;5.974;2023-04-15T11:13:22;5.07;;;2.80;;
59756;SDS011;45631;51.962;5.974;2023-04-15T11:15:59;8.13;;;2.70;;
59756;SDS011;45631;51.962;5.974;2023-04-15T11:18:29;5.70;;;2.80;;
59756;SDS011;45631;51.962;5.974;2023-04-15T11:20:59;4.72;;;2.25;;
59756;SDS011;45631;51.962;5.974;2023-04-15T11:23:30;4.78;;;2.50;;
59756;SDS011;45631;51.962;5.974;2023-04-15T11:26:02;6.18;;;3.13;;
59756;SDS011;45631;51.962;5.974;2023-04-15T11:28:35;8.20;;;4.57;;
59756;SDS011;45631;51.962;5.974;2023-04-15T11:31:06;12.52;;;8.15;;
59756;SDS011;45631;51.962;5.974;2023-04-15T11:33:37;6.80;;;3.75;;
59756;SDS011;45631;51.962;5.974;2023-04-15T11:36:15;5.97;;;2.80;;
59756;SDS011;45631;51.962;5.974;2023-04-15T11:38:44;5.07;;;2.45;;
59756;SDS011;45631;51.962;5.974;2023-04-15T11:41:19;5.78;;;2.35;;
59756;SDS011;45631;51.962;5.974;2023-04-15T11:43:48;6.32;;;2.75;;
59756;SDS011;45631;51.962;5.974;2023-04-15T11:46:19;4.95;;;2.20;;
59756;SDS011;45631;51.962;5.974;2023-04-15T11:48:48;3.78;;;1.98;;
59756;SDS011;45631;51.962;5.974;2023-04-15T11:51:16;4.97;;;2.30;;
59756;SDS011;45631;51.962;5.974;2023-04-15T11:53:48;6.43;;;2.20;;
59756;SDS011;45631;51.962;5.974;2023-04-15T11:56:18;4.68;;;1.98;;
59756;SDS011;45631;51.962;5.974;2023-04-15T11:58:47;5.03;;;2.08;;
59756;SDS011;45631;51.962;5.974;2023-04-15T12:01:26;3.90;;;2.10;;
59756;SDS011;45631;51.962;5.974;2023-04-15T12:03:58;4.93;;;1.65;;
59756;SDS011;45631;51.962;5.974;2023-04-15T12:06:30;3.83;;;1.75;;
59756;SDS011;45631;51.962;5.974;2023-04-15T12:09:02;6.38;;;3.20;;
59756;SDS011;45631;51.962;5.974;2023-04-15T12:11:41;6.47;;;2.40;;
59756;SDS011;45631;51.962;5.974;2023-04-15T12:14:19;5.93;;;2.35;;
59756;SDS011;45631;51.962;5.974;2023-04-15T12:16:51;5.80;;;2.00;;
59756;SDS011;45631;51.962;5.974;2023-04-15T12:19:28;5.53;;;1.80;;
59756;SDS011;45631;51.962;5.974;2023-04-15T12:21:58;3.85;;;1.73;;
59756;SDS011;45631;51.962;5.974;2023-04-15T12:24:30;4.10;;;1.70;;
59756;SDS011;45631;51.962;5.974;2023-04-15T12:27:00;5.30;;;1.90;;
59756;SDS011;45631;51.962;5.974;2023-04-15T12:29:30;2.78;;;1.58;;
59756;SDS011;45631;51.962;5.974;2023-04-15T12:32:04;3.75;;;1.70;;
59756;SDS011;45631;51.962;5.974;2023-04-15T12:34:35;3.85;;;1.50;;
59756;SDS011;45631;51.962;5.974;2023-04-15T12:37:05;3.75;;;1.60;;
59756;SDS011;45631;51.962;5.974;2023-04-15T12:39:36;3.70;;;1.50;;
59756;SDS011;45631;51.962;5.974;2023-04-15T12:42:05;2.55;;;1.42;;
59756;SDS011;45631;51.962;5.974;2023-04-15T12:44:34;3.38;;;1.20;;
59756;SDS011;45631;51.962;5.974;2023-04-15T12:47:05;3.22;;;1.50;;
59756;SDS011;45631;51.962;5.974;2023-04-15T12:49:34;4.45;;;1.60;;
59756;SDS011;45631;51.962;5.974;2023-04-15T12:52:03;3.10;;;1.42;;
59756;SDS011;45631;51.962;5.974;2023-04-15T12:54:32;2.97;;;1.33;;
59756;SDS011;45631;51.962;5.974;2023-04-15T12:57:01;3.50;;;1.42;;
59756;SDS011;45631;51.962;5.974;2023-04-15T12:59:32;4.05;;;1.67;;
59756;SDS011;45631;51.962;5.974;2023-04-15T13:02:05;5.05;;;1.90;;
59756;SDS011;45631;51.962;5.974;2023-04-15T13:04:33;2.67;;;1.30;;
59756;SDS011;45631;51.962;5.974;2023-04-15T13:07:01;3.40;;;1.30;;
59756;SDS011;45631;51.962;5.974;2023-04-15T13:09:30;2.78;;;1.20;;
59756;SDS011;45631;51.962;5.974;2023-04-15T13:11:59;5.80;;;1.40;;
59756;SDS011;45631;51.962;5.974;2023-04-15T13:14:27;2.97;;;1.27;;
59756;SDS011;45631;51.962;5.974;2023-04-15T13:16:56;4.00;;;1.70;;
59756;SDS011;45631;51.962;5.974;2023-04-15T13:19:25;1.42;;;1.10;;
59756;SDS011;45631;51.962;5.974;2023-04-15T13:21:53;4.25;;;1.40;;
59756;SDS011;45631;51.962;5.974;2023-04-15T13:24:22;4.28;;;1.58;;
59756;SDS011;45631;51.962;5.974;2023-04-15T13:26:51;2.30;;;1.10;;
59756;SDS011;45631;51.962;5.974;2023-04-15T13:29:19;4.68;;;1.30;;
59756;SDS011;45631;51.962;5.974;2023-04-15T13:31:47;2.72;;;0.98;;
59756;SDS011;45631;51.962;5.974;2023-04-15T13:34:16;3.00;;;1.00;;
59756;SDS011;45631;51.962;5.974;2023-04-15T13:36:45;3.10;;;1.10;;
59756;SDS011;45631;51.962;5.974;2023-04-15T13:39:13;4.57;;;1.10;;
59756;SDS011;45631;51.962;5.974;2023-04-15T13:41:41;2.22;;;1.10;;
59756;SDS011;45631;51.962;5.974;2023-04-15T13:44:10;2.95;;;1.10;;
59756;SDS011;45631;51.962;5.974;2023-04-15T13:46:38;4.57;;;0.90;;
59756;SDS011;45631;51.962;5.974;2023-04-15T13:49:07;2.53;;;1.00;;
59756;SDS011;45631;51.962;5.974;2023-04-15T13:51:38;3.15;;;1.05;;
59756;SDS011;45631;51.962;5.974;2023-04-15T13:54:08;3.78;;;0.98;;
59756;SDS011;45631;51.962;5.974;2023-04-15T13:56:36;4.25;;;1.25;;
59756;SDS011;45631;51.962;5.974;2023-04-15T13:59:05;3.63;;;1.10;;
59756;SDS011;45631;51.962;5.974;2023-04-15T14:01:34;2.90;;;1.10;;
59756;SDS011;45631;51.962;5.974;2023-04-15T14:04:02;4.03;;;1.20;;
59756;SDS011;45631;51.962;5.974;2023-04-15T14:06:31;3.58;;;1.33;;
59756;SDS011;45631;51.962;5.974;2023-04-15T14:08:59;2.60;;;1.23;;
59756;SDS011;45631;51.962;5.974;2023-04-15T14:11:28;3.60;;;1.40;;
59756;SDS011;45631;51.962;5.974;2023-04-15T14:13:59;2.67;;;1.13;;
59756;SDS011;45631;51.962;5.974;2023-04-15T14:16:28;1.70;;;1.05;;
59756;SDS011;45631;51.962;5.974;2023-04-15T14:18:56;2.38;;;1.08;;
59756;SDS011;45631;51.962;5.974;2023-04-15T14:21:25;3.90;;;1.20;;
59756;SDS011;45631;51.962;5.974;2023-04-15T14:23:55;2.38;;;1.00;;
59756;SDS011;45631;51.962;5.974;2023-04-15T14:26:23;4.80;;;1.10;;
59756;SDS011;45631;51.962;5.974;2023-04-15T14:28:53;3.22;;;1.10;;
59756;SDS011;45631;51.962;5.974;2023-04-15T14:31:21;5.95;;;1.33;;
59756;SDS011;45631;51.962;5.974;2023-04-15T14:33:49;5.07;;;1.58;;
59756;SDS011;45631;51.962;5.974;2023-04-15T14:36:18;5.20;;;1.50;;
59756;SDS011;45631;51.962;5.974;2023-04-15T14:38:46;4.93;;;1.42;;
59756;SDS011;45631;51.962;5.974;2023-04-15T14:41:14;3.97;;;1.50;;
59756;SDS011;45631;51.962;5.974;2023-04-15T14:43:42;5.25;;;1.30;;
59756;SDS011;45631;51.962;5.974;2023-04-15T14:46:12;6.85;;;1.15;;
59756;SDS011;45631;51.962;5.974;2023-04-15T14:48:41;4.00;;;1.50;;
59756;SDS011;45631;51.962;5.974;2023-04-15T14:51:09;4.57;;;1.50;;
59756;SDS011;45631;51.962;5.974;2023-04-15T14:53:37;3.17;;;1.30;;
59756;SDS011;45631;51.962;5.974;2023-04-15T14:56:06;3.53;;;1.40;;
59756;SDS011;45631;51.962;5.974;2023-04-15T14:58:34;3.85;;;1.40;;
59756;SDS011;45631;51.962;5.974;2023-04-15T15:01:02;5.10;;;1.60;;
59756;SDS011;45631;51.962;5.974;2023-04-15T15:03:33;4.78;;;1.52;;